sensor_id;sensor_type;location;lat;lon;timestamp;P1;durP1;ratioP1;P2;durP2;ratioP2
56271;SDS011;42177;48.914;18.160;2022-12-07T00:01:30;8.2;;;6.9;;
56271;SDS011;42177;48.914;18.160;2022-12-07T00:06:29;8.2;;;6.9;;
56271;SDS011;42177;48.914;18.160;2022-12-07T00:11:29;8;;;6.7;;
56271;SDS011;42177;48.914;18.160;2022-12-07T00:16:30;8;;;6.7;;
56271;SDS011;42177;48.914;18.160;2022-12-07T00:21:30;7.1;;;5.9;;
56271;SDS011;42177;48.914;18.160;2022-12-07T00:26:30;7.1;;;5.9;;
56271;SDS011;42177;48.914;18.160;2022-12-07T00:31:30;9.7;;;7.2;;
56271;SDS011;42177;48.914;18.160;2022-12-07T00:36:29;9.7;;;7.2;;
56271;SDS011;42177;48.914;18.160;2022-12-07T00:41:29;8.8;;;7.3;;
56271;SDS011;42177;48.914;18.160;2022-12-07T00:46:29;8.8;;;7.3;;
56271;SDS011;42177;48.914;18.160;2022-12-07T00:51:29;9;;;8;;
56271;SDS011;42177;48.914;18.160;2022-12-07T00:56:29;9;;;8;;
56271;SDS011;42177;48.914;18.160;2022-12-07T01:01:30;10.1;;;7.8;;
56271;SDS011;42177;48.914;18.160;2022-12-07T01:06:29;10.1;;;7.8;;
56271;SDS011;42177;48.914;18.160;2022-12-07T01:11:29;9.8;;;7.5;;
56271;SDS011;42177;48.914;18.160;2022-12-07T01:16:30;9.8;;;7.5;;
56271;SDS011;42177;48.914;18.160;2022-12-07T01:21:30;10;;;8.9;;
56271;SDS011;42177;48.914;18.160;2022-12-07T01:26:29;10;;;8.9;;
56271;SDS011;42177;48.914;18.160;2022-12-07T01:31:29;11.1;;;9.3;;
56271;SDS011;42177;48.914;18.160;2022-12-07T01:36:30;11.1;;;9.3;;
56271;SDS011;42177;48.914;18.160;2022-12-07T01:41:30;11.3;;;10.1;;
56271;SDS011;42177;48.914;18.160;2022-12-07T01:46:29;11.3;;;10.1;;
56271;SDS011;42177;48.914;18.160;2022-12-07T01:51:29;10.3;;;8.5;;
56271;SDS011;42177;48.914;18.160;2022-12-07T01:56:29;10.3;;;8.5;;
56271;SDS011;42177;48.914;18.160;2022-12-07T02:01:29;10.3;;;9.2;;
56271;SDS011;42177;48.914;18.160;2022-12-07T02:06:29;10.3;;;9.2;;
56271;SDS011;42177;48.914;18.160;2022-12-07T02:11:29;10.4;;;9.2;;
56271;SDS011;42177;48.914;18.160;2022-12-07T02:16:31;10.4;;;9.2;;
56271;SDS011;42177;48.914;18.160;2022-12-07T02:21:31;10.8;;;9.6;;
56271;SDS011;42177;48.914;18.160;2022-12-07T02:27:36;10.8;;;9.6;;
56271;SDS011;42177;48.914;18.160;2022-12-07T02:31:29;10.3;;;9;;
56271;SDS011;42177;48.914;18.160;2022-12-07T02:36:30;10.3;;;9;;
56271;SDS011;42177;48.914;18.160;2022-12-07T02:41:30;12.8;;;10.7;;
56271;SDS011;42177;48.914;18.160;2022-12-07T02:46:30;12.8;;;10.7;;
56271;SDS011;42177;48.914;18.160;2022-12-07T02:51:29;13.2;;;10.9;;
56271;SDS011;42177;48.914;18.160;2022-12-07T02:56:30;13.2;;;10.9;;
56271;SDS011;42177;48.914;18.160;2022-12-07T03:01:30;10.8;;;9.3;;
56271;SDS011;42177;48.914;18.160;2022-12-07T03:06:31;10.8;;;9.3;;
56271;SDS011;42177;48.914;18.160;2022-12-07T03:11:30;9.4;;;8.2;;
56271;SDS011;42177;48.914;18.160;2022-12-07T03:16:30;9.4;;;8.2;;
56271;SDS011;42177;48.914;18.160;2022-12-07T03:21:31;13.2;;;10.2;;
56271;SDS011;42177;48.914;18.160;2022-12-07T03:26:30;13.2;;;10.2;;
56271;SDS011;42177;48.914;18.160;2022-12-07T03:31:30;8.9;;;7.4;;
56271;SDS011;42177;48.914;18.160;2022-12-07T03:36:31;8.9;;;7.4;;
56271;SDS011;42177;48.914;18.160;2022-12-07T03:41:30;10.5;;;8.7;;
56271;SDS011;42177;48.914;18.160;2022-12-07T03:46:32;10.5;;;8.7;;
56271;SDS011;42177;48.914;18.160;2022-12-07T03:51:30;10.1;;;8.6;;
56271;SDS011;42177;48.914;18.160;2022-12-07T03:56:29;10.1;;;8.6;;
56271;SDS011;42177;48.914;18.160;2022-12-07T04:01:29;8.3;;;7.4;;
56271;SDS011;42177;48.914;18.160;2022-12-07T04:06:29;8.3;;;7.4;;
56271;SDS011;42177;48.914;18.160;2022-12-07T04:11:29;9;;;7.8;;
56271;SDS011;42177;48.914;18.160;2022-12-07T04:16:29;9;;;7.8;;
56271;SDS011;42177;48.914;18.160;2022-12-07T04:21:29;7.6;;;6.3;;
56271;SDS011;42177;48.914;18.160;2022-12-07T04:26:29;7.6;;;6.3;;
56271;SDS011;42177;48.914;18.160;2022-12-07T04:31:29;7.9;;;6.8;;
56271;SDS011;42177;48.914;18.160;2022-12-07T04:36:29;7.9;;;6.8;;
56271;SDS011;42177;48.914;18.160;2022-12-07T04:41:29;9.4;;;8.4;;
56271;SDS011;42177;48.914;18.160;2022-12-07T04:46:30;9.4;;;8.4;;
56271;SDS011;42177;48.914;18.160;2022-12-07T04:51:29;8.8;;;7.3;;
56271;SDS011;42177;48.914;18.160;2022-12-07T04:56:29;8.8;;;7.3;;
56271;SDS011;42177;48.914;18.160;2022-12-07T05:01:29;9;;;7.4;;
56271;SDS011;42177;48.914;18.160;2022-12-07T05:06:29;9;;;7.4;;
56271;SDS011;42177;48.914;18.160;2022-12-07T05:11:29;7.2;;;6.5;;
56271;SDS011;42177;48.914;18.160;2022-12-07T05:16:29;7.2;;;6.5;;
56271;SDS011;42177;48.914;18.160;2022-12-07T05:21:29;7.2;;;6.1;;
56271;SDS011;42177;48.914;18.160;2022-12-07T05:26:29;7.2;;;6.1;;
56271;SDS011;42177;48.914;18.160;2022-12-07T05:31:29;7.3;;;5.7;;
56271;SDS011;42177;48.914;18.160;2022-12-07T05:36:29;7.3;;;5.7;;
56271;SDS011;42177;48.914;18.160;2022-12-07T05:41:29;9.4;;;6.7;;
56271;SDS011;42177;48.914;18.160;2022-12-07T05:46:29;9.4;;;6.7;;
56271;SDS011;42177;48.914;18.160;2022-12-07T05:51:29;7.5;;;6.2;;
56271;SDS011;42177;48.914;18.160;2022-12-07T05:56:29;7.5;;;6.2;;
56271;SDS011;42177;48.914;18.160;2022-12-07T06:01:29;7.5;;;6;;
56271;SDS011;42177;48.914;18.160;2022-12-07T06:06:29;7.5;;;6;;
56271;SDS011;42177;48.914;18.160;2022-12-07T06:11:29;8.3;;;7;;
56271;SDS011;42177;48.914;18.160;2022-12-07T06:16:29;8.3;;;7;;
56271;SDS011;42177;48.914;18.160;2022-12-07T06:21:29;9.1;;;7.5;;
56271;SDS011;42177;48.914;18.160;2022-12-07T06:26:29;9.1;;;7.5;;
56271;SDS011;42177;48.914;18.160;2022-12-07T06:31:29;7.7;;;6.3;;
56271;SDS011;42177;48.914;18.160;2022-12-07T06:36:29;7.7;;;6.3;;
56271;SDS011;42177;48.914;18.160;2022-12-07T06:41:29;8;;;5.9;;
56271;SDS011;42177;48.914;18.160;2022-12-07T06:46:29;8;;;5.9;;
56271;SDS011;42177;48.914;18.160;2022-12-07T06:51:29;6.8;;;5.2;;
56271;SDS011;42177;48.914;18.160;2022-12-07T06:56:29;6.8;;;5.2;;
56271;SDS011;42177;48.914;18.160;2022-12-07T07:01:29;5.8;;;4.7;;
56271;SDS011;42177;48.914;18.160;2022-12-07T07:06:29;5.8;;;4.7;;
56271;SDS011;42177;48.914;18.160;2022-12-07T07:11:29;7.2;;;4.4;;
56271;SDS011;42177;48.914;18.160;2022-12-07T07:16:29;7.2;;;4.4;;
56271;SDS011;42177;48.914;18.160;2022-12-07T07:21:29;5.4;;;4.5;;
56271;SDS011;42177;48.914;18.160;2022-12-07T07:26:29;5.4;;;4.5;;
56271;SDS011;42177;48.914;18.160;2022-12-07T07:31:29;4.7;;;3.7;;
56271;SDS011;42177;48.914;18.160;2022-12-07T07:36:29;4.7;;;3.7;;
56271;SDS011;42177;48.914;18.160;2022-12-07T07:41:29;4.4;;;3.5;;
56271;SDS011;42177;48.914;18.160;2022-12-07T07:46:29;4.4;;;3.5;;
56271;SDS011;42177;48.914;18.160;2022-12-07T07:51:29;4;;;3.3;;
56271;SDS011;42177;48.914;18.160;2022-12-07T07:56:29;4;;;3.3;;
56271;SDS011;42177;48.914;18.160;2022-12-07T08:01:29;5;;;4;;
56271;SDS011;42177;48.914;18.160;2022-12-07T08:06:29;5;;;4;;
56271;SDS011;42177;48.914;18.160;2022-12-07T08:11:29;4.4;;;3.9;;
56271;SDS011;42177;48.914;18.160;2022-12-07T08:16:29;4.4;;;3.9;;
56271;SDS011;42177;48.914;18.160;2022-12-07T08:21:29;6.9;;;5.6;;
56271;SDS011;42177;48.914;18.160;2022-12-07T08:26:29;6.9;;;5.6;;
56271;SDS011;42177;48.914;18.160;2022-12-07T08:31:29;6.7;;;4.4;;
56271;SDS011;42177;48.914;18.160;2022-12-07T08:36:29;6.7;;;4.4;;
56271;SDS011;42177;48.914;18.160;2022-12-07T08:41:29;5;;;4.2;;
56271;SDS011;42177;48.914;18.160;2022-12-07T08:46:30;5;;;4.2;;
56271;SDS011;42177;48.914;18.160;2022-12-07T08:51:29;4.5;;;4;;
56271;SDS011;42177;48.914;18.160;2022-12-07T08:56:29;4.5;;;4;;
56271;SDS011;42177;48.914;18.160;2022-12-07T09:01:29;4.4;;;3.7;;
56271;SDS011;42177;48.914;18.160;2022-12-07T09:06:29;4.4;;;3.7;;
56271;SDS011;42177;48.914;18.160;2022-12-07T09:11:29;3.7;;;3.1;;
56271;SDS011;42177;48.914;18.160;2022-12-07T09:16:29;3.7;;;3.1;;
56271;SDS011;42177;48.914;18.160;2022-12-07T09:21:29;5.1;;;3.1;;
56271;SDS011;42177;48.914;18.160;2022-12-07T09:26:29;5.1;;;3.1;;
56271;SDS011;42177;48.914;18.160;2022-12-07T09:31:29;4.4;;;2.9;;
56271;SDS011;42177;48.914;18.160;2022-12-07T09:36:29;4.4;;;2.9;;
56271;SDS011;42177;48.914;18.160;2022-12-07T09:41:29;4.1;;;3.1;;
56271;SDS011;42177;48.914;18.160;2022-12-07T09:46:29;4.1;;;3.1;;
56271;SDS011;42177;48.914;18.160;2022-12-07T09:51:29;4.2;;;3.2;;
56271;SDS011;42177;48.914;18.160;2022-12-07T09:56:29;4.2;;;3.2;;
56271;SDS011;42177;48.914;18.160;2022-12-07T10:01:30;4.6;;;3.5;;
56271;SDS011;42177;48.914;18.160;2022-12-07T10:06:29;4.6;;;3.5;;
56271;SDS011;42177;48.914;18.160;2022-12-07T10:11:29;4.5;;;3.4;;
56271;SDS011;42177;48.914;18.160;2022-12-07T10:16:32;4.5;;;3.4;;
56271;SDS011;42177;48.914;18.160;2022-12-07T10:21:29;4.2;;;3.4;;
56271;SDS011;42177;48.914;18.160;2022-12-07T10:26:31;4.2;;;3.4;;
56271;SDS011;42177;48.914;18.160;2022-12-07T10:31:29;4.5;;;3.9;;
56271;SDS011;42177;48.914;18.160;2022-12-07T10:36:34;4.5;;;3.9;;
56271;SDS011;42177;48.914;18.160;2022-12-07T10:41:29;5.4;;;4.2;;
56271;SDS011;42177;48.914;18.160;2022-12-07T10:46:36;5.4;;;4.2;;
56271;SDS011;42177;48.914;18.160;2022-12-07T10:51:31;5.4;;;4.5;;
56271;SDS011;42177;48.914;18.160;2022-12-07T10:56:35;5.4;;;4.5;;
56271;SDS011;42177;48.914;18.160;2022-12-07T11:01:30;5.3;;;4.5;;
56271;SDS011;42177;48.914;18.160;2022-12-07T11:06:31;5.3;;;4.5;;
56271;SDS011;42177;48.914;18.160;2022-12-07T11:11:30;6.9;;;6;;
56271;SDS011;42177;48.914;18.160;2022-12-07T11:16:32;6.9;;;6;;
56271;SDS011;42177;48.914;18.160;2022-12-07T11:21:30;6.5;;;5;;
56271;SDS011;42177;48.914;18.160;2022-12-07T11:26:34;6.5;;;5;;
56271;SDS011;42177;48.914;18.160;2022-12-07T11:31:31;5.9;;;5.2;;
56271;SDS011;42177;48.914;18.160;2022-12-07T11:36:32;5.9;;;5.2;;
56271;SDS011;42177;48.914;18.160;2022-12-07T11:41:30;7.8;;;6;;
56271;SDS011;42177;48.914;18.160;2022-12-07T11:46:31;7.8;;;6;;
56271;SDS011;42177;48.914;18.160;2022-12-07T11:51:29;7.3;;;5.8;;
56271;SDS011;42177;48.914;18.160;2022-12-07T11:56:29;7.3;;;5.8;;
56271;SDS011;42177;48.914;18.160;2022-12-07T12:01:33;7.7;;;6.1;;
56271;SDS011;42177;48.914;18.160;2022-12-07T12:06:29;7.7;;;6.1;;
56271;SDS011;42177;48.914;18.160;2022-12-07T12:11:34;7.7;;;5.7;;
56271;SDS011;42177;48.914;18.160;2022-12-07T12:16:37;7.7;;;5.7;;
56271;SDS011;42177;48.914;18.160;2022-12-07T12:21:29;6.4;;;5.7;;
56271;SDS011;42177;48.914;18.160;2022-12-07T12:26:30;6.4;;;5.7;;
56271;SDS011;42177;48.914;18.160;2022-12-07T12:31:32;6.6;;;5.8;;
56271;SDS011;42177;48.914;18.160;2022-12-07T12:36:43;6.6;;;5.8;;
56271;SDS011;42177;48.914;18.160;2022-12-07T12:42:01;6.3;;;5.3;;
56271;SDS011;42177;48.914;18.160;2022-12-07T12:46:49;6.3;;;5.3;;
56271;SDS011;42177;48.914;18.160;2022-12-07T12:51:37;7;;;5.4;;
56271;SDS011;42177;48.914;18.160;2022-12-07T12:56:33;7;;;5.4;;
56271;SDS011;42177;48.914;18.160;2022-12-07T13:01:33;8;;;5.5;;
56271;SDS011;42177;48.914;18.160;2022-12-07T13:06:34;8;;;5.5;;
56271;SDS011;42177;48.914;18.160;2022-12-07T13:11:31;7;;;5.4;;
56271;SDS011;42177;48.914;18.160;2022-12-07T13:16:38;7;;;5.4;;
56271;SDS011;42177;48.914;18.160;2022-12-07T13:21:44;6.4;;;4.1;;
56271;SDS011;42177;48.914;18.160;2022-12-07T13:26:34;6.4;;;4.1;;
56271;SDS011;42177;48.914;18.160;2022-12-07T13:31:31;4.8;;;3.6;;
56271;SDS011;42177;48.914;18.160;2022-12-07T13:36:30;4.8;;;3.6;;
56271;SDS011;42177;48.914;18.160;2022-12-07T13:41:29;3.8;;;3.4;;
56271;SDS011;42177;48.914;18.160;2022-12-07T13:46:35;3.8;;;3.4;;
56271;SDS011;42177;48.914;18.160;2022-12-07T13:51:33;4.4;;;3.5;;
56271;SDS011;42177;48.914;18.160;2022-12-07T13:56:31;4.4;;;3.5;;
56271;SDS011;42177;48.914;18.160;2022-12-07T14:01:30;4.2;;;3.1;;
56271;SDS011;42177;48.914;18.160;2022-12-07T14:06:29;4.2;;;3.1;;
56271;SDS011;42177;48.914;18.160;2022-12-07T14:11:29;3.7;;;3.1;;
56271;SDS011;42177;48.914;18.160;2022-12-07T14:16:30;3.7;;;3.1;;
56271;SDS011;42177;48.914;18.160;2022-12-07T14:21:30;4.1;;;3.4;;
56271;SDS011;42177;48.914;18.160;2022-12-07T14:26:29;4.1;;;3.4;;
56271;SDS011;42177;48.914;18.160;2022-12-07T14:31:29;4.8;;;3.7;;
56271;SDS011;42177;48.914;18.160;2022-12-07T14:36:29;4.8;;;3.7;;
56271;SDS011;42177;48.914;18.160;2022-12-07T14:41:29;6;;;3.3;;
56271;SDS011;42177;48.914;18.160;2022-12-07T14:46:29;6;;;3.3;;
56271;SDS011;42177;48.914;18.160;2022-12-07T14:51:29;4.1;;;3.3;;
56271;SDS011;42177;48.914;18.160;2022-12-07T14:56:29;4.1;;;3.3;;
56271;SDS011;42177;48.914;18.160;2022-12-07T15:01:29;5.3;;;3.4;;
56271;SDS011;42177;48.914;18.160;2022-12-07T15:06:29;5.3;;;3.4;;
56271;SDS011;42177;48.914;18.160;2022-12-07T15:11:29;3.9;;;2.7;;
56271;SDS011;42177;48.914;18.160;2022-12-07T15:16:29;3.9;;;2.7;;
56271;SDS011;42177;48.914;18.160;2022-12-07T15:21:29;4.6;;;3.4;;
56271;SDS011;42177;48.914;18.160;2022-12-07T15:26:29;4.6;;;3.4;;
56271;SDS011;42177;48.914;18.160;2022-12-07T15:31:29;4.4;;;3.5;;
56271;SDS011;42177;48.914;18.160;2022-12-07T15:36:30;4.4;;;3.5;;
56271;SDS011;42177;48.914;18.160;2022-12-07T15:41:29;5.9;;;3.7;;
56271;SDS011;42177;48.914;18.160;2022-12-07T15:46:29;5.9;;;3.7;;
56271;SDS011;42177;48.914;18.160;2022-12-07T15:51:29;6.7;;;3.8;;
56271;SDS011;42177;48.914;18.160;2022-12-07T15:56:29;6.7;;;3.8;;
56271;SDS011;42177;48.914;18.160;2022-12-07T16:01:29;4.6;;;3.5;;
56271;SDS011;42177;48.914;18.160;2022-12-07T16:06:29;4.6;;;3.5;;
56271;SDS011;42177;48.914;18.160;2022-12-07T16:11:29;4.6;;;3.7;;
56271;SDS011;42177;48.914;18.160;2022-12-07T16:16:29;4.6;;;3.7;;
56271;SDS011;42177;48.914;18.160;2022-12-07T16:21:29;5.3;;;4;;
56271;SDS011;42177;48.914;18.160;2022-12-07T16:26:29;5.3;;;4;;
56271;SDS011;42177;48.914;18.160;2022-12-07T16:31:29;5.7;;;3.7;;
56271;SDS011;42177;48.914;18.160;2022-12-07T16:36:29;5.7;;;3.7;;
56271;SDS011;42177;48.914;18.160;2022-12-07T16:41:29;5.4;;;4.2;;
56271;SDS011;42177;48.914;18.160;2022-12-07T16:46:31;5.4;;;4.2;;
56271;SDS011;42177;48.914;18.160;2022-12-07T16:51:30;6.8;;;4.5;;
56271;SDS011;42177;48.914;18.160;2022-12-07T16:56:29;6.8;;;4.5;;
56271;SDS011;42177;48.914;18.160;2022-12-07T17:01:29;6.8;;;4.6;;
56271;SDS011;42177;48.914;18.160;2022-12-07T17:06:29;6.8;;;4.6;;
56271;SDS011;42177;48.914;18.160;2022-12-07T17:11:29;5.8;;;4.4;;
56271;SDS011;42177;48.914;18.160;2022-12-07T17:16:29;5.8;;;4.4;;
56271;SDS011;42177;48.914;18.160;2022-12-07T17:21:30;6.8;;;4.6;;
56271;SDS011;42177;48.914;18.160;2022-12-07T17:26:29;6.8;;;4.6;;
56271;SDS011;42177;48.914;18.160;2022-12-07T17:31:29;7.7;;;5;;
56271;SDS011;42177;48.914;18.160;2022-12-07T17:36:30;7.7;;;5;;
56271;SDS011;42177;48.914;18.160;2022-12-07T17:41:29;7.8;;;5.1;;
56271;SDS011;42177;48.914;18.160;2022-12-07T17:46:29;7.8;;;5.1;;
56271;SDS011;42177;48.914;18.160;2022-12-07T17:51:29;6.4;;;4.8;;
56271;SDS011;42177;48.914;18.160;2022-12-07T17:56:29;6.4;;;4.8;;
56271;SDS011;42177;48.914;18.160;2022-12-07T18:01:29;6.6;;;4.9;;
56271;SDS011;42177;48.914;18.160;2022-12-07T18:06:29;6.6;;;4.9;;
56271;SDS011;42177;48.914;18.160;2022-12-07T18:11:29;6.9;;;4.7;;
56271;SDS011;42177;48.914;18.160;2022-12-07T18:16:30;6.9;;;4.7;;
56271;SDS011;42177;48.914;18.160;2022-12-07T18:21:30;14.4;;;9.3;;
56271;SDS011;42177;48.914;18.160;2022-12-07T18:26:30;14.4;;;9.3;;
56271;SDS011;42177;48.914;18.160;2022-12-07T18:31:29;19.8;;;13.1;;
56271;SDS011;42177;48.914;18.160;2022-12-07T18:36:29;19.8;;;13.1;;
56271;SDS011;42177;48.914;18.160;2022-12-07T18:41:29;10;;;6.7;;
56271;SDS011;42177;48.914;18.160;2022-12-07T18:46:29;10;;;6.7;;
56271;SDS011;42177;48.914;18.160;2022-12-07T18:51:29;15.7;;;9.1;;
56271;SDS011;42177;48.914;18.160;2022-12-07T18:56:29;15.7;;;9.1;;
56271;SDS011;42177;48.914;18.160;2022-12-07T19:01:29;10.7;;;7.1;;
56271;SDS011;42177;48.914;18.160;2022-12-07T19:06:30;10.7;;;7.1;;
56271;SDS011;42177;48.914;18.160;2022-12-07T19:11:30;9;;;6.1;;
56271;SDS011;42177;48.914;18.160;2022-12-07T19:16:29;9;;;6.1;;
56271;SDS011;42177;48.914;18.160;2022-12-07T19:21:29;7.7;;;5.8;;
56271;SDS011;42177;48.914;18.160;2022-12-07T19:26:29;7.7;;;5.8;;
56271;SDS011;42177;48.914;18.160;2022-12-07T19:31:29;7.6;;;5.8;;
56271;SDS011;42177;48.914;18.160;2022-12-07T19:36:29;7.6;;;5.8;;
56271;SDS011;42177;48.914;18.160;2022-12-07T19:41:29;10.3;;;7.7;;
56271;SDS011;42177;48.914;18.160;2022-12-07T19:46:30;10.3;;;7.7;;
56271;SDS011;42177;48.914;18.160;2022-12-07T19:51:29;10.7;;;6.9;;
56271;SDS011;42177;48.914;18.160;2022-12-07T19:56:30;10.7;;;6.9;;
56271;SDS011;42177;48.914;18.160;2022-12-07T20:01:29;9.9;;;7.2;;
56271;SDS011;42177;48.914;18.160;2022-12-07T20:06:29;9.9;;;7.2;;
56271;SDS011;42177;48.914;18.160;2022-12-07T20:11:29;13.1;;;9.2;;
56271;SDS011;42177;48.914;18.160;2022-12-07T20:16:29;13.1;;;9.2;;
56271;SDS011;42177;48.914;18.160;2022-12-07T20:21:29;11.4;;;8.5;;
56271;SDS011;42177;48.914;18.160;2022-12-07T20:26:29;11.4;;;8.5;;
56271;SDS011;42177;48.914;18.160;2022-12-07T20:31:29;15.6;;;11.7;;
56271;SDS011;42177;48.914;18.160;2022-12-07T20:36:29;15.6;;;11.7;;
56271;SDS011;42177;48.914;18.160;2022-12-07T20:41:30;14.4;;;10.6;;
56271;SDS011;42177;48.914;18.160;2022-12-07T20:46:29;14.4;;;10.6;;
56271;SDS011;42177;48.914;18.160;2022-12-07T20:51:29;20.2;;;13.5;;
56271;SDS011;42177;48.914;18.160;2022-12-07T20:56:30;20.2;;;13.5;;
56271;SDS011;42177;48.914;18.160;2022-12-07T21:01:29;16.3;;;11.8;;
56271;SDS011;42177;48.914;18.160;2022-12-07T21:06:29;16.3;;;11.8;;
56271;SDS011;42177;48.914;18.160;2022-12-07T21:11:30;15.1;;;11.4;;
56271;SDS011;42177;48.914;18.160;2022-12-07T21:16:29;15.1;;;11.4;;
56271;SDS011;42177;48.914;18.160;2022-12-07T21:21:29;14.7;;;10.9;;
56271;SDS011;42177;48.914;18.160;2022-12-07T21:26:30;14.7;;;10.9;;
56271;SDS011;42177;48.914;18.160;2022-12-07T21:31:29;13.1;;;9.9;;
56271;SDS011;42177;48.914;18.160;2022-12-07T21:36:29;13.1;;;9.9;;
56271;SDS011;42177;48.914;18.160;2022-12-07T21:41:30;13.2;;;10.1;;
56271;SDS011;42177;48.914;18.160;2022-12-07T21:46:29;13.2;;;10.1;;
56271;SDS011;42177;48.914;18.160;2022-12-07T21:51:29;11.2;;;8.5;;
56271;SDS011;42177;48.914;18.160;2022-12-07T21:56:30;11.2;;;8.5;;
56271;SDS011;42177;48.914;18.160;2022-12-07T22:01:30;14.2;;;9.4;;
56271;SDS011;42177;48.914;18.160;2022-12-07T22:06:29;14.2;;;9.4;;
56271;SDS011;42177;48.914;18.160;2022-12-07T22:11:29;12.3;;;8.5;;
56271;SDS011;42177;48.914;18.160;2022-12-07T22:16:29;12.3;;;8.5;;
56271;SDS011;42177;48.914;18.160;2022-12-07T22:21:29;12.4;;;8.4;;
56271;SDS011;42177;48.914;18.160;2022-12-07T22:26:29;12.4;;;8.4;;
56271;SDS011;42177;48.914;18.160;2022-12-07T22:31:29;12.6;;;8.5;;
56271;SDS011;42177;48.914;18.160;2022-12-07T22:36:29;12.6;;;8.5;;
56271;SDS011;42177;48.914;18.160;2022-12-07T22:41:30;12;;;8.5;;
56271;SDS011;42177;48.914;18.160;2022-12-07T22:46:29;12;;;8.5;;
56271;SDS011;42177;48.914;18.160;2022-12-07T22:51:30;10.5;;;7.2;;
56271;SDS011;42177;48.914;18.160;2022-12-07T22:56:30;10.5;;;7.2;;
56271;SDS011;42177;48.914;18.160;2022-12-07T23:01:29;12.4;;;8.9;;
56271;SDS011;42177;48.914;18.160;2022-12-07T23:06:30;12.4;;;8.9;;
56271;SDS011;42177;48.914;18.160;2022-12-07T23:11:31;10.7;;;8.2;;
56271;SDS011;42177;48.914;18.160;2022-12-07T23:16:29;10.7;;;8.2;;
56271;SDS011;42177;48.914;18.160;2022-12-07T23:21:29;11.4;;;8.3;;
56271;SDS011;42177;48.914;18.160;2022-12-07T23:26:29;11.4;;;8.3;;
56271;SDS011;42177;48.914;18.160;2022-12-07T23:31:29;10.3;;;7.5;;
56271;SDS011;42177;48.914;18.160;2022-12-07T23:36:29;10.3;;;7.5;;
56271;SDS011;42177;48.914;18.160;2022-12-07T23:41:29;13.4;;;9.6;;
56271;SDS011;42177;48.914;18.160;2022-12-07T23:46:30;13.4;;;9.6;;
56271;SDS011;42177;48.914;18.160;2022-12-07T23:51:30;10.5;;;7.7;;
56271;SDS011;42177;48.914;18.160;2022-12-07T23:56:30;10.5;;;7.7;;
